sensor_id;sensor_type;location;lat;lon;timestamp;temperature;humidity
3298;DHT22;1661;53.572;10.174;2023-03-30T00:00:31;10.80;89.80
3298;DHT22;1661;53.572;10.174;2023-03-30T00:02:58;10.80;90.00
3298;DHT22;1661;53.572;10.174;2023-03-30T00:05:27;10.80;90.00
3298;DHT22;1661;53.572;10.174;2023-03-30T00:07:55;10.80;90.00
3298;DHT22;1661;53.572;10.174;2023-03-30T00:10:22;10.90;89.90
3298;DHT22;1661;53.572;10.174;2023-03-30T00:12:49;10.80;89.90
3298;DHT22;1661;53.572;10.174;2023-03-30T00:15:19;10.90;89.90
3298;DHT22;1661;53.572;10.174;2023-03-30T00:17:46;10.90;89.90
3298;DHT22;1661;53.572;10.174;2023-03-30T00:20:14;10.90;90.00
3298;DHT22;1661;53.572;10.174;2023-03-30T00:22:43;10.90;90.20
3298;DHT22;1661;53.572;10.174;2023-03-30T00:25:12;10.90;90.20
3298;DHT22;1661;53.572;10.174;2023-03-30T00:27:41;10.90;90.40
3298;DHT22;1661;53.572;10.174;2023-03-30T00:30:11;10.80;90.50
3298;DHT22;1661;53.572;10.174;2023-03-30T00:32:38;10.80;90.70
3298;DHT22;1661;53.572;10.174;2023-03-30T00:35:06;10.70;91.00
3298;DHT22;1661;53.572;10.174;2023-03-30T00:37:33;10.70;91.20
3298;DHT22;1661;53.572;10.174;2023-03-30T00:40:02;10.80;91.10
3298;DHT22;1661;53.572;10.174;2023-03-30T00:42:33;10.70;91.20
3298;DHT22;1661;53.572;10.174;2023-03-30T00:45:06;10.70;91.10
3298;DHT22;1661;53.572;10.174;2023-03-30T00:47:35;10.80;91.10
3298;DHT22;1661;53.572;10.174;2023-03-30T00:50:05;10.80;91.00
3298;DHT22;1661;53.572;10.174;2023-03-30T00:52:33;10.80;90.90
3298;DHT22;1661;53.572;10.174;2023-03-30T00:55:04;10.70;91.10
3298;DHT22;1661;53.572;10.174;2023-03-30T00:57:35;10.80;91.20
3298;DHT22;1661;53.572;10.174;2023-03-30T01:00:03;10.80;91.00
3298;DHT22;1661;53.572;10.174;2023-03-30T01:02:32;10.80;90.90
3298;DHT22;1661;53.572;10.174;2023-03-30T01:05:03;10.90;90.70
3298;DHT22;1661;53.572;10.174;2023-03-30T01:07:31;10.90;90.60
3298;DHT22;1661;53.572;10.174;2023-03-30T01:09:58;10.90;90.50
3298;DHT22;1661;53.572;10.174;2023-03-30T01:12:26;10.90;90.50
3298;DHT22;1661;53.572;10.174;2023-03-30T01:14:56;10.90;90.30
3298;DHT22;1661;53.572;10.174;2023-03-30T01:17:30;10.90;90.30
3298;DHT22;1661;53.572;10.174;2023-03-30T01:20:13;10.90;90.40
3298;DHT22;1661;53.572;10.174;2023-03-30T01:23:05;10.80;90.60
3298;DHT22;1661;53.572;10.174;2023-03-30T01:26:02;10.90;90.70
3298;DHT22;1661;53.572;10.174;2023-03-30T01:28:40;10.90;90.70
3298;DHT22;1661;53.572;10.174;2023-03-30T01:31:29;10.90;90.60
3298;DHT22;1661;53.572;10.174;2023-03-30T01:34:09;10.90;90.50
3298;DHT22;1661;53.572;10.174;2023-03-30T01:36:58;10.90;90.60
3298;DHT22;1661;53.572;10.174;2023-03-30T01:39:39;10.80;90.80
3298;DHT22;1661;53.572;10.174;2023-03-30T01:42:15;10.80;90.90
3298;DHT22;1661;53.572;10.174;2023-03-30T01:44:50;10.80;91.00
3298;DHT22;1661;53.572;10.174;2023-03-30T01:47:22;10.80;91.10
3298;DHT22;1661;53.572;10.174;2023-03-30T01:49:54;10.80;91.10
3298;DHT22;1661;53.572;10.174;2023-03-30T01:52:25;10.70;91.10
3298;DHT22;1661;53.572;10.174;2023-03-30T01:54:59;10.80;91.20
3298;DHT22;1661;53.572;10.174;2023-03-30T01:57:29;10.80;91.10
3298;DHT22;1661;53.572;10.174;2023-03-30T01:59:59;10.80;91.20
3298;DHT22;1661;53.572;10.174;2023-03-30T02:02:32;10.80;91.20
3298;DHT22;1661;53.572;10.174;2023-03-30T02:05:01;10.80;91.10
3298;DHT22;1661;53.572;10.174;2023-03-30T02:07:31;10.80;91.10
3298;DHT22;1661;53.572;10.174;2023-03-30T02:10:06;10.80;91.20
3298;DHT22;1661;53.572;10.174;2023-03-30T02:12:35;10.80;91.50
3298;DHT22;1661;53.572;10.174;2023-03-30T02:15:06;10.80;91.50
3298;DHT22;1661;53.572;10.174;2023-03-30T02:17:34;10.90;91.30
3298;DHT22;1661;53.572;10.174;2023-03-30T02:20:04;10.90;91.30
3298;DHT22;1661;53.572;10.174;2023-03-30T02:22:35;10.90;91.30
3298;DHT22;1661;53.572;10.174;2023-03-30T02:25:04;10.90;91.40
3298;DHT22;1661;53.572;10.174;2023-03-30T02:27:31;10.80;91.50
3298;DHT22;1661;53.572;10.174;2023-03-30T02:29:59;10.80;91.80
3298;DHT22;1661;53.572;10.174;2023-03-30T02:32:38;10.80;91.80
3298;DHT22;1661;53.572;10.174;2023-03-30T02:35:26;10.80;91.70
3298;DHT22;1661;53.572;10.174;2023-03-30T02:41:00;10.80;92.00
3298;DHT22;1661;53.572;10.174;2023-03-30T02:43:43;10.80;92.00
3298;DHT22;1661;53.572;10.174;2023-03-30T02:46:22;10.70;92.30
3298;DHT22;1661;53.572;10.174;2023-03-30T02:48:58;10.70;92.50
3298;DHT22;1661;53.572;10.174;2023-03-30T02:51:37;10.70;92.70
3298;DHT22;1661;53.572;10.174;2023-03-30T02:54:11;10.60;92.90
3298;DHT22;1661;53.572;10.174;2023-03-30T02:56:45;10.60;93.00
3298;DHT22;1661;53.572;10.174;2023-03-30T02:59:16;10.70;93.00
3298;DHT22;1661;53.572;10.174;2023-03-30T03:01:46;10.70;92.60
3298;DHT22;1661;53.572;10.174;2023-03-30T03:04:16;10.70;92.70
3298;DHT22;1661;53.572;10.174;2023-03-30T03:06:45;10.70;92.80
3298;DHT22;1661;53.572;10.174;2023-03-30T03:09:12;10.70;92.80
3298;DHT22;1661;53.572;10.174;2023-03-30T03:11:41;10.70;92.70
3298;DHT22;1661;53.572;10.174;2023-03-30T03:14:07;10.70;92.80
3298;DHT22;1661;53.572;10.174;2023-03-30T03:16:36;10.60;93.00
3298;DHT22;1661;53.572;10.174;2023-03-30T03:19:03;10.60;93.10
3298;DHT22;1661;53.572;10.174;2023-03-30T03:21:30;10.70;93.00
3298;DHT22;1661;53.572;10.174;2023-03-30T03:23:56;10.60;93.00
3298;DHT22;1661;53.572;10.174;2023-03-30T03:26:23;10.60;93.20
3298;DHT22;1661;53.572;10.174;2023-03-30T03:28:52;10.60;93.00
3298;DHT22;1661;53.572;10.174;2023-03-30T03:31:19;10.60;93.00
3298;DHT22;1661;53.572;10.174;2023-03-30T03:33:46;10.50;93.20
3298;DHT22;1661;53.572;10.174;2023-03-30T03:36:13;10.60;93.10
3298;DHT22;1661;53.572;10.174;2023-03-30T03:38:40;10.60;92.80
3298;DHT22;1661;53.572;10.174;2023-03-30T03:41:07;10.50;92.60
3298;DHT22;1661;53.572;10.174;2023-03-30T03:43:34;10.50;92.80
3298;DHT22;1661;53.572;10.174;2023-03-30T03:46:02;10.50;92.60
3298;DHT22;1661;53.572;10.174;2023-03-30T03:48:29;10.50;92.70
3298;DHT22;1661;53.572;10.174;2023-03-30T03:50:57;10.40;92.90
3298;DHT22;1661;53.572;10.174;2023-03-30T03:53:25;10.40;93.10
3298;DHT22;1661;53.572;10.174;2023-03-30T03:55:53;10.40;93.10
3298;DHT22;1661;53.572;10.174;2023-03-30T03:58:20;10.40;93.20
3298;DHT22;1661;53.572;10.174;2023-03-30T04:00:47;10.40;93.10
3298;DHT22;1661;53.572;10.174;2023-03-30T04:03:15;10.30;93.10
3298;DHT22;1661;53.572;10.174;2023-03-30T04:05:42;10.30;93.60
3298;DHT22;1661;53.572;10.174;2023-03-30T04:08:09;10.30;93.40
3298;DHT22;1661;53.572;10.174;2023-03-30T04:10:36;10.40;93.30
3298;DHT22;1661;53.572;10.174;2023-03-30T04:13:03;10.40;93.30
3298;DHT22;1661;53.572;10.174;2023-03-30T04:15:30;10.40;93.00
3298;DHT22;1661;53.572;10.174;2023-03-30T04:17:57;10.40;93.00
3298;DHT22;1661;53.572;10.174;2023-03-30T04:20:27;10.40;92.90
3298;DHT22;1661;53.572;10.174;2023-03-30T04:22:54;10.40;93.10
3298;DHT22;1661;53.572;10.174;2023-03-30T04:25:22;10.40;93.20
3298;DHT22;1661;53.572;10.174;2023-03-30T04:27:50;10.40;93.20
3298;DHT22;1661;53.572;10.174;2023-03-30T04:30:18;10.40;93.30
3298;DHT22;1661;53.572;10.174;2023-03-30T04:32:45;10.50;93.10
3298;DHT22;1661;53.572;10.174;2023-03-30T04:35:19;10.40;93.00
3298;DHT22;1661;53.572;10.174;2023-03-30T04:37:47;10.40;93.20
3298;DHT22;1661;53.572;10.174;2023-03-30T04:40:17;10.40;93.20
3298;DHT22;1661;53.572;10.174;2023-03-30T04:42:44;10.40;93.20
3298;DHT22;1661;53.572;10.174;2023-03-30T04:45:15;10.40;93.00
3298;DHT22;1661;53.572;10.174;2023-03-30T04:47:42;10.40;93.10
3298;DHT22;1661;53.572;10.174;2023-03-30T04:50:10;10.40;93.30
3298;DHT22;1661;53.572;10.174;2023-03-30T04:52:37;10.40;93.20
3298;DHT22;1661;53.572;10.174;2023-03-30T04:55:06;10.40;93.20
3298;DHT22;1661;53.572;10.174;2023-03-30T04:57:34;10.40;93.10
3298;DHT22;1661;53.572;10.174;2023-03-30T05:00:01;10.30;93.10
3298;DHT22;1661;53.572;10.174;2023-03-30T05:02:31;10.30;93.10
3298;DHT22;1661;53.572;10.174;2023-03-30T05:04:58;10.20;93.50
3298;DHT22;1661;53.572;10.174;2023-03-30T05:07:25;10.20;93.50
3298;DHT22;1661;53.572;10.174;2023-03-30T05:09:51;10.30;93.60
3298;DHT22;1661;53.572;10.174;2023-03-30T05:12:20;10.30;93.40
3298;DHT22;1661;53.572;10.174;2023-03-30T05:14:46;10.30;93.40
3298;DHT22;1661;53.572;10.174;2023-03-30T05:17:13;10.40;93.30
3298;DHT22;1661;53.572;10.174;2023-03-30T05:19:40;10.40;93.10
3298;DHT22;1661;53.572;10.174;2023-03-30T05:22:07;10.50;92.70
3298;DHT22;1661;53.572;10.174;2023-03-30T05:24:33;10.50;92.60
3298;DHT22;1661;53.572;10.174;2023-03-30T05:27:00;10.60;92.30
3298;DHT22;1661;53.572;10.174;2023-03-30T05:29:30;10.50;92.50
3298;DHT22;1661;53.572;10.174;2023-03-30T05:31:57;10.50;92.50
3298;DHT22;1661;53.572;10.174;2023-03-30T05:34:24;10.50;92.50
3298;DHT22;1661;53.572;10.174;2023-03-30T05:36:51;10.50;92.70
3298;DHT22;1661;53.572;10.174;2023-03-30T05:39:18;10.50;92.60
3298;DHT22;1661;53.572;10.174;2023-03-30T05:41:45;10.60;92.50
3298;DHT22;1661;53.572;10.174;2023-03-30T05:44:12;10.60;92.30
3298;DHT22;1661;53.572;10.174;2023-03-30T05:46:40;10.70;92.20
3298;DHT22;1661;53.572;10.174;2023-03-30T05:49:07;10.70;92.00
3298;DHT22;1661;53.572;10.174;2023-03-30T05:51:34;10.70;91.80
3298;DHT22;1661;53.572;10.174;2023-03-30T05:54:01;10.80;91.60
3298;DHT22;1661;53.572;10.174;2023-03-30T05:56:28;10.80;91.50
3298;DHT22;1661;53.572;10.174;2023-03-30T05:58:55;10.90;91.30
3298;DHT22;1661;53.572;10.174;2023-03-30T06:01:23;10.90;91.20
3298;DHT22;1661;53.572;10.174;2023-03-30T06:03:51;10.90;91.10
3298;DHT22;1661;53.572;10.174;2023-03-30T06:06:18;10.80;91.40
3298;DHT22;1661;53.572;10.174;2023-03-30T06:08:46;10.80;91.60
3298;DHT22;1661;53.572;10.174;2023-03-30T06:11:13;10.80;91.70
3298;DHT22;1661;53.572;10.174;2023-03-30T06:13:40;10.80;92.10
3298;DHT22;1661;53.572;10.174;2023-03-30T06:16:08;10.90;92.10
3298;DHT22;1661;53.572;10.174;2023-03-30T06:18:35;10.90;92.20
3298;DHT22;1661;53.572;10.174;2023-03-30T06:21:03;10.90;92.30
3298;DHT22;1661;53.572;10.174;2023-03-30T06:23:31;11.00;92.20
3298;DHT22;1661;53.572;10.174;2023-03-30T06:25:58;11.10;92.10
3298;DHT22;1661;53.572;10.174;2023-03-30T06:28:26;11.10;92.00
3298;DHT22;1661;53.572;10.174;2023-03-30T06:30:53;11.20;92.00
3298;DHT22;1661;53.572;10.174;2023-03-30T06:33:20;11.20;91.80
3298;DHT22;1661;53.572;10.174;2023-03-30T06:35:48;11.30;91.80
3298;DHT22;1661;53.572;10.174;2023-03-30T06:38:17;11.30;91.90
3298;DHT22;1661;53.572;10.174;2023-03-30T06:40:44;11.30;91.90
3298;DHT22;1661;53.572;10.174;2023-03-30T06:43:15;11.30;92.00
3298;DHT22;1661;53.572;10.174;2023-03-30T06:45:42;11.40;92.20
3298;DHT22;1661;53.572;10.174;2023-03-30T06:48:09;11.40;92.40
3298;DHT22;1661;53.572;10.174;2023-03-30T06:50:36;11.50;92.70
3298;DHT22;1661;53.572;10.174;2023-03-30T06:53:03;11.50;92.80
3298;DHT22;1661;53.572;10.174;2023-03-30T06:55:31;11.60;92.80
3298;DHT22;1661;53.572;10.174;2023-03-30T06:57:58;11.70;92.70
3298;DHT22;1661;53.572;10.174;2023-03-30T07:00:25;11.80;92.80
3298;DHT22;1661;53.572;10.174;2023-03-30T07:02:52;11.80;92.80
3298;DHT22;1661;53.572;10.174;2023-03-30T07:05:19;11.80;92.80
3298;DHT22;1661;53.572;10.174;2023-03-30T07:07:49;11.90;92.70
3298;DHT22;1661;53.572;10.174;2023-03-30T07:10:16;12.00;92.60
3298;DHT22;1661;53.572;10.174;2023-03-30T07:12:45;12.10;92.50
3298;DHT22;1661;53.572;10.174;2023-03-30T07:15:12;12.20;92.60
3298;DHT22;1661;53.572;10.174;2023-03-30T07:17:40;12.30;92.40
3298;DHT22;1661;53.572;10.174;2023-03-30T07:20:08;12.40;92.20
3298;DHT22;1661;53.572;10.174;2023-03-30T07:22:35;12.40;91.90
3298;DHT22;1661;53.572;10.174;2023-03-30T07:25:03;12.50;91.90
3298;DHT22;1661;53.572;10.174;2023-03-30T07:27:30;12.60;91.70
3298;DHT22;1661;53.572;10.174;2023-03-30T07:29:58;12.80;91.50
3298;DHT22;1661;53.572;10.174;2023-03-30T07:32:25;12.90;90.70
3298;DHT22;1661;53.572;10.174;2023-03-30T07:34:52;13.00;89.90
3298;DHT22;1661;53.572;10.174;2023-03-30T07:37:19;13.10;89.40
3298;DHT22;1661;53.572;10.174;2023-03-30T07:39:46;13.20;88.70
3298;DHT22;1661;53.572;10.174;2023-03-30T07:42:13;13.20;88.10
3298;DHT22;1661;53.572;10.174;2023-03-30T07:44:40;13.30;88.10
3298;DHT22;1661;53.572;10.174;2023-03-30T07:47:08;13.30;87.90
3298;DHT22;1661;53.572;10.174;2023-03-30T07:49:35;13.40;87.60
3298;DHT22;1661;53.572;10.174;2023-03-30T07:52:02;13.50;87.20
3298;DHT22;1661;53.572;10.174;2023-03-30T07:54:28;13.60;86.90
3298;DHT22;1661;53.572;10.174;2023-03-30T07:56:55;13.60;86.30
3298;DHT22;1661;53.572;10.174;2023-03-30T07:59:23;13.50;86.10
3298;DHT22;1661;53.572;10.174;2023-03-30T08:01:50;13.60;86.10
3298;DHT22;1661;53.572;10.174;2023-03-30T08:04:20;13.60;86.10
3298;DHT22;1661;53.572;10.174;2023-03-30T08:06:49;13.60;86.00
3298;DHT22;1661;53.572;10.174;2023-03-30T08:09:18;13.60;86.00
3298;DHT22;1661;53.572;10.174;2023-03-30T08:11:45;13.50;86.20
3298;DHT22;1661;53.572;10.174;2023-03-30T08:14:11;13.60;86.30
3298;DHT22;1661;53.572;10.174;2023-03-30T08:16:38;13.60;86.30
3298;DHT22;1661;53.572;10.174;2023-03-30T08:19:05;13.70;86.30
3298;DHT22;1661;53.572;10.174;2023-03-30T08:21:34;13.70;86.20
3298;DHT22;1661;53.572;10.174;2023-03-30T08:24:00;13.80;86.60
3298;DHT22;1661;53.572;10.174;2023-03-30T08:26:27;13.90;87.30
3298;DHT22;1661;53.572;10.174;2023-03-30T08:28:55;14.00;87.00
3298;DHT22;1661;53.572;10.174;2023-03-30T08:31:23;14.10;87.00
3298;DHT22;1661;53.572;10.174;2023-03-30T08:33:50;14.20;86.70
3298;DHT22;1661;53.572;10.174;2023-03-30T08:36:17;14.20;86.50
3298;DHT22;1661;53.572;10.174;2023-03-30T08:38:46;14.20;85.90
3298;DHT22;1661;53.572;10.174;2023-03-30T08:41:35;14.20;86.10
3298;DHT22;1661;53.572;10.174;2023-03-30T08:44:16;14.30;86.30
3298;DHT22;1661;53.572;10.174;2023-03-30T08:46:46;14.30;86.10
3298;DHT22;1661;53.572;10.174;2023-03-30T08:49:17;14.40;86.30
3298;DHT22;1661;53.572;10.174;2023-03-30T08:51:46;14.50;85.70
3298;DHT22;1661;53.572;10.174;2023-03-30T08:54:17;14.40;85.40
3298;DHT22;1661;53.572;10.174;2023-03-30T08:56:55;14.30;84.80
3298;DHT22;1661;53.572;10.174;2023-03-30T08:59:28;14.40;85.50
3298;DHT22;1661;53.572;10.174;2023-03-30T09:02:00;14.40;86.10
3298;DHT22;1661;53.572;10.174;2023-03-30T09:04:36;14.50;85.80
3298;DHT22;1661;53.572;10.174;2023-03-30T09:07:10;14.60;85.50
3298;DHT22;1661;53.572;10.174;2023-03-30T09:09:43;14.70;85.10
3298;DHT22;1661;53.572;10.174;2023-03-30T09:12:17;14.80;84.90
3298;DHT22;1661;53.572;10.174;2023-03-30T09:14:51;14.90;84.70
3298;DHT22;1661;53.572;10.174;2023-03-30T09:17:21;14.90;83.70
3298;DHT22;1661;53.572;10.174;2023-03-30T09:19:54;15.10;84.20
3298;DHT22;1661;53.572;10.174;2023-03-30T09:22:25;15.20;83.30
3298;DHT22;1661;53.572;10.174;2023-03-30T09:24:56;15.50;83.70
3298;DHT22;1661;53.572;10.174;2023-03-30T09:27:29;15.70;83.30
3298;DHT22;1661;53.572;10.174;2023-03-30T09:30:11;16.00;82.70
3298;DHT22;1661;53.572;10.174;2023-03-30T09:32:45;16.30;81.40
3298;DHT22;1661;53.572;10.174;2023-03-30T09:35:17;16.50;79.10
3298;DHT22;1661;53.572;10.174;2023-03-30T09:37:45;16.60;78.20
3298;DHT22;1661;53.572;10.174;2023-03-30T09:40:25;16.70;77.50
3298;DHT22;1661;53.572;10.174;2023-03-30T09:43:00;16.60;76.70
3298;DHT22;1661;53.572;10.174;2023-03-30T09:45:32;16.50;76.20
3298;DHT22;1661;53.572;10.174;2023-03-30T09:48:03;16.30;76.80
3298;DHT22;1661;53.572;10.174;2023-03-30T09:50:30;16.10;77.40
3298;DHT22;1661;53.572;10.174;2023-03-30T09:53:02;16.10;77.30
3298;DHT22;1661;53.572;10.174;2023-03-30T09:55:32;16.00;77.20
3298;DHT22;1661;53.572;10.174;2023-03-30T09:58:11;15.90;77.40
3298;DHT22;1661;53.572;10.174;2023-03-30T10:00:38;15.80;77.30
3298;DHT22;1661;53.572;10.174;2023-03-30T10:03:06;15.70;77.80
3298;DHT22;1661;53.572;10.174;2023-03-30T10:05:35;15.70;77.80
3298;DHT22;1661;53.572;10.174;2023-03-30T10:08:04;15.70;77.10
3298;DHT22;1661;53.572;10.174;2023-03-30T10:10:34;15.70;77.80
3298;DHT22;1661;53.572;10.174;2023-03-30T10:13:05;15.80;77.70
3298;DHT22;1661;53.572;10.174;2023-03-30T10:15:35;15.80;76.80
3298;DHT22;1661;53.572;10.174;2023-03-30T10:18:23;15.80;76.40
3298;DHT22;1661;53.572;10.174;2023-03-30T10:20:54;15.70;77.10
3298;DHT22;1661;53.572;10.174;2023-03-30T10:23:30;15.60;77.10
3298;DHT22;1661;53.572;10.174;2023-03-30T10:26:01;15.60;77.40
3298;DHT22;1661;53.572;10.174;2023-03-30T10:28:30;15.70;78.30
3298;DHT22;1661;53.572;10.174;2023-03-30T10:31:00;15.80;77.60
3298;DHT22;1661;53.572;10.174;2023-03-30T10:33:28;16.10;77.00
3298;DHT22;1661;53.572;10.174;2023-03-30T10:35:57;16.20;75.90
3298;DHT22;1661;53.572;10.174;2023-03-30T10:38:29;16.30;75.90
3298;DHT22;1661;53.572;10.174;2023-03-30T10:41:01;16.50;75.30
3298;DHT22;1661;53.572;10.174;2023-03-30T10:43:33;16.90;76.20
3298;DHT22;1661;53.572;10.174;2023-03-30T10:46:06;17.30;72.40
3298;DHT22;1661;53.572;10.174;2023-03-30T10:48:46;17.60;72.10
3298;DHT22;1661;53.572;10.174;2023-03-30T10:51:21;18.00;70.00
3298;DHT22;1661;53.572;10.174;2023-03-30T10:53:55;18.10;69.10
3298;DHT22;1661;53.572;10.174;2023-03-30T10:56:33;18.20;68.40
3298;DHT22;1661;53.572;10.174;2023-03-30T10:59:33;18.10;68.60
3298;DHT22;1661;53.572;10.174;2023-03-30T11:02:41;18.20;68.80
3298;DHT22;1661;53.572;10.174;2023-03-30T11:05:12;18.10;67.90
3298;DHT22;1661;53.572;10.174;2023-03-30T11:07:42;17.90;68.40
3298;DHT22;1661;53.572;10.174;2023-03-30T11:10:15;17.70;67.80
3298;DHT22;1661;53.572;10.174;2023-03-30T11:12:50;17.70;68.50
3298;DHT22;1661;53.572;10.174;2023-03-30T11:15:23;17.70;67.20
3298;DHT22;1661;53.572;10.174;2023-03-30T11:17:56;17.50;66.20
3298;DHT22;1661;53.572;10.174;2023-03-30T11:20:27;17.40;67.40
3298;DHT22;1661;53.572;10.174;2023-03-30T11:23:04;17.30;66.90
3298;DHT22;1661;53.572;10.174;2023-03-30T11:25:35;17.20;66.90
3298;DHT22;1661;53.572;10.174;2023-03-30T11:28:13;17.00;68.00
3298;DHT22;1661;53.572;10.174;2023-03-30T11:30:42;16.70;67.40
3298;DHT22;1661;53.572;10.174;2023-03-30T11:33:17;16.70;68.30
3298;DHT22;1661;53.572;10.174;2023-03-30T11:35:47;16.80;68.90
3298;DHT22;1661;53.572;10.174;2023-03-30T11:38:19;16.80;68.30
3298;DHT22;1661;53.572;10.174;2023-03-30T11:40:49;16.80;68.50
3298;DHT22;1661;53.572;10.174;2023-03-30T11:43:21;17.10;68.80
3298;DHT22;1661;53.572;10.174;2023-03-30T11:45:56;17.30;66.20
3298;DHT22;1661;53.572;10.174;2023-03-30T11:48:40;17.40;65.20
3298;DHT22;1661;53.572;10.174;2023-03-30T11:51:32;17.40;65.10
3298;DHT22;1661;53.572;10.174;2023-03-30T11:54:16;17.40;64.40
3298;DHT22;1661;53.572;10.174;2023-03-30T11:56:49;17.40;64.70
3298;DHT22;1661;53.572;10.174;2023-03-30T11:59:25;17.70;64.50
3298;DHT22;1661;53.572;10.174;2023-03-30T12:02:06;17.80;63.20
3298;DHT22;1661;53.572;10.174;2023-03-30T12:04:38;17.80;62.80
3298;DHT22;1661;53.572;10.174;2023-03-30T12:07:18;17.80;64.90
3298;DHT22;1661;53.572;10.174;2023-03-30T12:09:53;17.80;62.90
3298;DHT22;1661;53.572;10.174;2023-03-30T12:12:25;17.90;63.50
3298;DHT22;1661;53.572;10.174;2023-03-30T12:15:03;17.90;63.90
3298;DHT22;1661;53.572;10.174;2023-03-30T12:17:42;17.70;65.00
3298;DHT22;1661;53.572;10.174;2023-03-30T12:20:26;17.70;64.60
3298;DHT22;1661;53.572;10.174;2023-03-30T12:22:57;17.60;64.70
3298;DHT22;1661;53.572;10.174;2023-03-30T12:25:32;17.30;64.70
3298;DHT22;1661;53.572;10.174;2023-03-30T12:28:10;17.10;65.00
3298;DHT22;1661;53.572;10.174;2023-03-30T12:30:44;17.10;66.70
3298;DHT22;1661;53.572;10.174;2023-03-30T12:33:17;16.90;68.60
3298;DHT22;1661;53.572;10.174;2023-03-30T12:35:54;16.50;74.20
3298;DHT22;1661;53.572;10.174;2023-03-30T12:38:22;16.10;77.00
3298;DHT22;1661;53.572;10.174;2023-03-30T12:41:00;15.70;79.10
3298;DHT22;1661;53.572;10.174;2023-03-30T12:43:34;15.50;80.50
3298;DHT22;1661;53.572;10.174;2023-03-30T12:46:09;15.30;81.40
3298;DHT22;1661;53.572;10.174;2023-03-30T12:48:47;15.00;81.60
3298;DHT22;1661;53.572;10.174;2023-03-30T12:51:27;14.80;81.60
3298;DHT22;1661;53.572;10.174;2023-03-30T12:54:27;14.80;82.80
3298;DHT22;1661;53.572;10.174;2023-03-30T12:57:02;14.70;82.50
3298;DHT22;1661;53.572;10.174;2023-03-30T12:59:50;14.60;83.10
3298;DHT22;1661;53.572;10.174;2023-03-30T13:05:27;14.60;82.40
3298;DHT22;1661;53.572;10.174;2023-03-30T13:07:55;14.80;82.50
3298;DHT22;1661;53.572;10.174;2023-03-30T13:10:41;15.00;81.90
3298;DHT22;1661;53.572;10.174;2023-03-30T13:13:22;15.30;81.50
3298;DHT22;1661;53.572;10.174;2023-03-30T13:15:52;15.20;79.20
3298;DHT22;1661;53.572;10.174;2023-03-30T13:18:40;15.10;79.60
3298;DHT22;1661;53.572;10.174;2023-03-30T13:21:21;15.30;80.70
3298;DHT22;1661;53.572;10.174;2023-03-30T13:24:25;15.40;80.20
3298;DHT22;1661;53.572;10.174;2023-03-30T13:26:53;15.40;79.50
3298;DHT22;1661;53.572;10.174;2023-03-30T13:29:36;15.50;79.60
3298;DHT22;1661;53.572;10.174;2023-03-30T13:32:13;15.60;78.80
3298;DHT22;1661;53.572;10.174;2023-03-30T13:34:59;15.30;76.20
3298;DHT22;1661;53.572;10.174;2023-03-30T13:37:35;15.10;77.50
3298;DHT22;1661;53.572;10.174;2023-03-30T13:40:10;15.10;78.50
3298;DHT22;1661;53.572;10.174;2023-03-30T13:42:46;15.00;76.30
3298;DHT22;1661;53.572;10.174;2023-03-30T13:45:29;15.00;76.90
3298;DHT22;1661;53.572;10.174;2023-03-30T13:48:05;14.80;72.90
3298;DHT22;1661;53.572;10.174;2023-03-30T13:50:36;14.70;73.50
3298;DHT22;1661;53.572;10.174;2023-03-30T13:53:08;14.90;72.00
3298;DHT22;1661;53.572;10.174;2023-03-30T13:55:37;15.00;72.50
3298;DHT22;1661;53.572;10.174;2023-03-30T13:58:09;15.10;72.20
3298;DHT22;1661;53.572;10.174;2023-03-30T14:00:42;15.20;71.50
3298;DHT22;1661;53.572;10.174;2023-03-30T14:03:31;15.30;71.40
3298;DHT22;1661;53.572;10.174;2023-03-30T14:06:01;15.40;71.90
3298;DHT22;1661;53.572;10.174;2023-03-30T14:08:31;15.50;69.50
3298;DHT22;1661;53.572;10.174;2023-03-30T14:11:02;15.50;69.60
3298;DHT22;1661;53.572;10.174;2023-03-30T14:13:29;15.50;69.80
3298;DHT22;1661;53.572;10.174;2023-03-30T14:15:57;15.50;70.40
3298;DHT22;1661;53.572;10.174;2023-03-30T14:18:24;15.50;69.60
3298;DHT22;1661;53.572;10.174;2023-03-30T14:20:56;15.60;70.60
3298;DHT22;1661;53.572;10.174;2023-03-30T14:23:30;15.60;68.90
3298;DHT22;1661;53.572;10.174;2023-03-30T14:25:58;15.70;67.70
3298;DHT22;1661;53.572;10.174;2023-03-30T14:28:28;15.70;67.10
3298;DHT22;1661;53.572;10.174;2023-03-30T14:30:56;15.70;68.10
3298;DHT22;1661;53.572;10.174;2023-03-30T14:33:24;15.50;67.10
3298;DHT22;1661;53.572;10.174;2023-03-30T14:35:53;15.60;68.70
3298;DHT22;1661;53.572;10.174;2023-03-30T14:38:22;15.40;66.80
3298;DHT22;1661;53.572;10.174;2023-03-30T14:40:52;15.40;67.50
3298;DHT22;1661;53.572;10.174;2023-03-30T14:43:21;15.30;66.10
3298;DHT22;1661;53.572;10.174;2023-03-30T14:45:50;15.40;67.80
3298;DHT22;1661;53.572;10.174;2023-03-30T14:48:23;15.50;68.80
3298;DHT22;1661;53.572;10.174;2023-03-30T14:50:52;15.60;66.00
3298;DHT22;1661;53.572;10.174;2023-03-30T14:53:22;15.80;67.50
3298;DHT22;1661;53.572;10.174;2023-03-30T14:55:54;15.60;63.60
3298;DHT22;1661;53.572;10.174;2023-03-30T14:58:23;15.60;66.30
3298;DHT22;1661;53.572;10.174;2023-03-30T15:00:54;15.70;67.30
3298;DHT22;1661;53.572;10.174;2023-03-30T15:03:23;15.80;65.70
3298;DHT22;1661;53.572;10.174;2023-03-30T15:05:52;15.90;64.20
3298;DHT22;1661;53.572;10.174;2023-03-30T15:08:20;15.90;63.70
3298;DHT22;1661;53.572;10.174;2023-03-30T15:10:50;15.80;65.10
3298;DHT22;1661;53.572;10.174;2023-03-30T15:13:25;15.90;67.00
3298;DHT22;1661;53.572;10.174;2023-03-30T15:15:53;15.90;65.70
3298;DHT22;1661;53.572;10.174;2023-03-30T15:18:24;15.90;64.40
3298;DHT22;1661;53.572;10.174;2023-03-30T15:20:52;15.80;66.10
3298;DHT22;1661;53.572;10.174;2023-03-30T15:23:19;15.80;67.80
3298;DHT22;1661;53.572;10.174;2023-03-30T15:25:46;15.80;66.60
3298;DHT22;1661;53.572;10.174;2023-03-30T15:28:15;15.80;65.60
3298;DHT22;1661;53.572;10.174;2023-03-30T15:30:48;15.70;66.30
3298;DHT22;1661;53.572;10.174;2023-03-30T15:33:21;15.80;67.50
3298;DHT22;1661;53.572;10.174;2023-03-30T15:35:49;15.80;64.60
3298;DHT22;1661;53.572;10.174;2023-03-30T15:38:17;15.90;66.40
3298;DHT22;1661;53.572;10.174;2023-03-30T15:40:47;16.00;65.80
3298;DHT22;1661;53.572;10.174;2023-03-30T15:43:19;16.00;64.60
3298;DHT22;1661;53.572;10.174;2023-03-30T15:45:50;16.10;65.90
3298;DHT22;1661;53.572;10.174;2023-03-30T15:48:20;16.10;65.90
3298;DHT22;1661;53.572;10.174;2023-03-30T15:50:53;16.10;66.80
3298;DHT22;1661;53.572;10.174;2023-03-30T15:53:33;15.90;66.90
3298;DHT22;1661;53.572;10.174;2023-03-30T15:56:02;15.70;71.60
3298;DHT22;1661;53.572;10.174;2023-03-30T15:58:29;15.40;72.80
3298;DHT22;1661;53.572;10.174;2023-03-30T16:00:57;14.90;75.30
3298;DHT22;1661;53.572;10.174;2023-03-30T16:03:33;14.90;75.90
3298;DHT22;1661;53.572;10.174;2023-03-30T16:06:00;14.90;76.60
3298;DHT22;1661;53.572;10.174;2023-03-30T16:08:27;14.60;77.20
3298;DHT22;1661;53.572;10.174;2023-03-30T16:10:54;14.30;76.70
3298;DHT22;1661;53.572;10.174;2023-03-30T16:13:21;14.30;78.20
3298;DHT22;1661;53.572;10.174;2023-03-30T16:15:48;14.20;78.10